sensor_id;sensor_type;location;lat;lon;timestamp;P1;durP1;ratioP1;P2;durP2;ratioP2
75165;SDS011;63747;48.042;10.088;2023-06-26T00:02:35;9.77;;;8.55;;
75165;SDS011;63747;48.042;10.088;2023-06-26T00:05:36;9.43;;;8.43;;
75165;SDS011;63747;48.042;10.088;2023-06-26T00:08:36;9.23;;;7.32;;
75165;SDS011;63747;48.042;10.088;2023-06-26T00:11:37;9.05;;;8.15;;
75165;SDS011;63747;48.042;10.088;2023-06-26T00:14:38;10.52;;;9.50;;
75165;SDS011;63747;48.042;10.088;2023-06-26T00:17:39;9.50;;;8.50;;
75165;SDS011;63747;48.042;10.088;2023-06-26T00:20:40;11.45;;;8.18;;
75165;SDS011;63747;48.042;10.088;2023-06-26T00:23:40;10.00;;;9.00;;
75165;SDS011;63747;48.042;10.088;2023-06-26T00:26:41;8.70;;;7.90;;
75165;SDS011;63747;48.042;10.088;2023-06-26T00:29:42;9.20;;;8.30;;
75165;SDS011;63747;48.042;10.088;2023-06-26T00:32:43;8.60;;;7.70;;
75165;SDS011;63747;48.042;10.088;2023-06-26T00:35:44;9.30;;;8.40;;
75165;SDS011;63747;48.042;10.088;2023-06-26T00:38:44;9.93;;;8.93;;
75165;SDS011;63747;48.042;10.088;2023-06-26T00:41:45;9.60;;;8.10;;
75165;SDS011;63747;48.042;10.088;2023-06-26T00:44:46;9.85;;;8.43;;
75165;SDS011;63747;48.042;10.088;2023-06-26T00:47:47;10.20;;;8.73;;
75165;SDS011;63747;48.042;10.088;2023-06-26T00:50:48;9.43;;;8.35;;
75165;SDS011;63747;48.042;10.088;2023-06-26T00:53:49;9.38;;;8.48;;
75165;SDS011;63747;48.042;10.088;2023-06-26T00:56:50;10.05;;;8.00;;
75165;SDS011;63747;48.042;10.088;2023-06-26T00:59:52;9.95;;;8.95;;
75165;SDS011;63747;48.042;10.088;2023-06-26T01:02:53;9.65;;;8.65;;
75165;SDS011;63747;48.042;10.088;2023-06-26T01:05:59;10.07;;;9.07;;
75165;SDS011;63747;48.042;10.088;2023-06-26T01:09:06;9.75;;;8.73;;
75165;SDS011;63747;48.042;10.088;2023-06-26T01:15:08;12.20;;;9.90;;
75165;SDS011;63747;48.042;10.088;2023-06-26T01:21:10;11.20;;;9.10;;
75165;SDS011;63747;48.042;10.088;2023-06-26T01:24:17;10.18;;;9.13;;
75165;SDS011;63747;48.042;10.088;2023-06-26T01:27:27;11.20;;;9.60;;
75165;SDS011;63747;48.042;10.088;2023-06-26T01:30:32;9.57;;;8.57;;
75165;SDS011;63747;48.042;10.088;2023-06-26T01:33:36;11.60;;;9.40;;
75165;SDS011;63747;48.042;10.088;2023-06-26T01:36:38;9.80;;;8.80;;
75165;SDS011;63747;48.042;10.088;2023-06-26T01:39:39;10.63;;;9.38;;
75165;SDS011;63747;48.042;10.088;2023-06-26T01:42:39;10.57;;;9.43;;
75165;SDS011;63747;48.042;10.088;2023-06-26T01:45:40;11.55;;;9.38;;
75165;SDS011;63747;48.042;10.088;2023-06-26T01:48:49;9.45;;;8.45;;
75165;SDS011;63747;48.042;10.088;2023-06-26T01:55:17;10.63;;;9.57;;
75165;SDS011;63747;48.042;10.088;2023-06-26T01:58:22;10.13;;;8.68;;
75165;SDS011;63747;48.042;10.088;2023-06-26T02:01:25;11.32;;;9.43;;
75165;SDS011;63747;48.042;10.088;2023-06-26T02:04:26;9.80;;;8.80;;
75165;SDS011;63747;48.042;10.088;2023-06-26T02:07:27;10.20;;;9.20;;
75165;SDS011;63747;48.042;10.088;2023-06-26T02:10:28;9.85;;;8.88;;
75165;SDS011;63747;48.042;10.088;2023-06-26T02:13:29;9.60;;;8.40;;
75165;SDS011;63747;48.042;10.088;2023-06-26T02:16:30;9.38;;;8.48;;
75165;SDS011;63747;48.042;10.088;2023-06-26T02:19:31;9.00;;;8.10;;
75165;SDS011;63747;48.042;10.088;2023-06-26T02:22:32;10.65;;;9.13;;
75165;SDS011;63747;48.042;10.088;2023-06-26T02:25:33;11.20;;;8.88;;
75165;SDS011;63747;48.042;10.088;2023-06-26T02:28:33;10.25;;;8.73;;
75165;SDS011;63747;48.042;10.088;2023-06-26T02:31:34;10.63;;;8.77;;
75165;SDS011;63747;48.042;10.088;2023-06-26T02:34:35;10.38;;;8.90;;
75165;SDS011;63747;48.042;10.088;2023-06-26T02:37:36;10.23;;;8.63;;
75165;SDS011;63747;48.042;10.088;2023-06-26T02:40:37;10.20;;;8.98;;
75165;SDS011;63747;48.042;10.088;2023-06-26T02:43:37;9.38;;;8.48;;
75165;SDS011;63747;48.042;10.088;2023-06-26T02:46:38;10.27;;;9.27;;
75165;SDS011;63747;48.042;10.088;2023-06-26T02:49:39;10.60;;;9.20;;
75165;SDS011;63747;48.042;10.088;2023-06-26T02:52:39;9.05;;;8.15;;
75165;SDS011;63747;48.042;10.088;2023-06-26T02:55:40;10.55;;;9.05;;
75165;SDS011;63747;48.042;10.088;2023-06-26T02:58:41;10.35;;;9.35;;
75165;SDS011;63747;48.042;10.088;2023-06-26T03:01:41;11.15;;;8.70;;
75165;SDS011;63747;48.042;10.088;2023-06-26T03:04:42;9.98;;;8.98;;
75165;SDS011;63747;48.042;10.088;2023-06-26T03:07:43;9.65;;;8.65;;
75165;SDS011;63747;48.042;10.088;2023-06-26T03:10:44;10.48;;;9.38;;
75165;SDS011;63747;48.042;10.088;2023-06-26T03:13:45;10.60;;;8.60;;
75165;SDS011;63747;48.042;10.088;2023-06-26T03:16:46;11.85;;;9.23;;
75165;SDS011;63747;48.042;10.088;2023-06-26T03:19:46;10.60;;;9.07;;
75165;SDS011;63747;48.042;10.088;2023-06-26T03:22:47;10.10;;;9.02;;
75165;SDS011;63747;48.042;10.088;2023-06-26T03:25:48;10.50;;;9.32;;
75165;SDS011;63747;48.042;10.088;2023-06-26T03:28:49;10.23;;;9.18;;
75165;SDS011;63747;48.042;10.088;2023-06-26T03:31:50;9.93;;;8.63;;
75165;SDS011;63747;48.042;10.088;2023-06-26T03:34:50;10.50;;;8.60;;
75165;SDS011;63747;48.042;10.088;2023-06-26T03:37:53;10.10;;;8.18;;
75165;SDS011;63747;48.042;10.088;2023-06-26T03:40:53;9.90;;;8.90;;
75165;SDS011;63747;48.042;10.088;2023-06-26T03:43:54;9.40;;;8.45;;
75165;SDS011;63747;48.042;10.088;2023-06-26T03:46:56;11.55;;;9.00;;
75165;SDS011;63747;48.042;10.088;2023-06-26T03:49:57;10.55;;;8.35;;
75165;SDS011;63747;48.042;10.088;2023-06-26T03:52:57;9.52;;;8.38;;
75165;SDS011;63747;48.042;10.088;2023-06-26T03:55:59;9.52;;;8.52;;
75165;SDS011;63747;48.042;10.088;2023-06-26T03:59:00;11.52;;;8.70;;
75165;SDS011;63747;48.042;10.088;2023-06-26T04:02:00;9.60;;;8.52;;
75165;SDS011;63747;48.042;10.088;2023-06-26T04:05:01;9.68;;;8.68;;
75165;SDS011;63747;48.042;10.088;2023-06-26T04:08:04;9.00;;;8.02;;
75165;SDS011;63747;48.042;10.088;2023-06-26T04:11:04;8.75;;;7.85;;
75165;SDS011;63747;48.042;10.088;2023-06-26T04:14:05;8.75;;;7.85;;
75165;SDS011;63747;48.042;10.088;2023-06-26T04:17:06;9.25;;;7.95;;
75165;SDS011;63747;48.042;10.088;2023-06-26T04:20:07;9.15;;;7.85;;
75165;SDS011;63747;48.042;10.088;2023-06-26T04:23:08;10.18;;;8.18;;
75165;SDS011;63747;48.042;10.088;2023-06-26T04:26:09;10.18;;;8.82;;
75165;SDS011;63747;48.042;10.088;2023-06-26T04:29:14;9.27;;;8.27;;
75165;SDS011;63747;48.042;10.088;2023-06-26T04:32:18;8.52;;;7.65;;
75165;SDS011;63747;48.042;10.088;2023-06-26T04:35:18;9.20;;;8.30;;
75165;SDS011;63747;48.042;10.088;2023-06-26T04:38:21;10.23;;;7.78;;
75165;SDS011;63747;48.042;10.088;2023-06-26T04:41:21;8.70;;;7.88;;
75165;SDS011;63747;48.042;10.088;2023-06-26T04:44:22;8.75;;;7.43;;
75165;SDS011;63747;48.042;10.088;2023-06-26T04:47:23;16.90;;;9.27;;
75165;SDS011;63747;48.042;10.088;2023-06-26T04:50:23;9.35;;;8.45;;
75165;SDS011;63747;48.042;10.088;2023-06-26T04:53:24;8.95;;;8.05;;
75165;SDS011;63747;48.042;10.088;2023-06-26T04:56:26;8.65;;;7.78;;
75165;SDS011;63747;48.042;10.088;2023-06-26T04:59:26;9.63;;;8.50;;
75165;SDS011;63747;48.042;10.088;2023-06-26T05:02:27;9.50;;;7.97;;
75165;SDS011;63747;48.042;10.088;2023-06-26T05:05:28;12.77;;;7.78;;
75165;SDS011;63747;48.042;10.088;2023-06-26T05:08:28;12.80;;;8.45;;
75165;SDS011;63747;48.042;10.088;2023-06-26T05:11:29;15.90;;;8.50;;
75165;SDS011;63747;48.042;10.088;2023-06-26T05:14:30;8.88;;;7.60;;
75165;SDS011;63747;48.042;10.088;2023-06-26T05:17:30;11.40;;;8.18;;
75165;SDS011;63747;48.042;10.088;2023-06-26T05:20:31;9.05;;;7.70;;
75165;SDS011;63747;48.042;10.088;2023-06-26T05:23:32;8.07;;;7.38;;
75165;SDS011;63747;48.042;10.088;2023-06-26T05:26:34;7.97;;;7.20;;
75165;SDS011;63747;48.042;10.088;2023-06-26T05:29:35;10.68;;;7.15;;
75165;SDS011;63747;48.042;10.088;2023-06-26T05:32:37;8.30;;;6.82;;
75165;SDS011;63747;48.042;10.088;2023-06-26T05:35:40;7.55;;;6.70;;
75165;SDS011;63747;48.042;10.088;2023-06-26T05:38:41;9.88;;;6.47;;
75165;SDS011;63747;48.042;10.088;2023-06-26T05:47:44;7.78;;;6.68;;
75165;SDS011;63747;48.042;10.088;2023-06-26T05:50:46;7.72;;;6.90;;
75165;SDS011;63747;48.042;10.088;2023-06-26T05:56:48;6.93;;;6.13;;
75165;SDS011;63747;48.042;10.088;2023-06-26T05:59:50;7.18;;;5.90;;
75165;SDS011;63747;48.042;10.088;2023-06-26T06:02:51;7.03;;;6.43;;
75165;SDS011;63747;48.042;10.088;2023-06-26T06:05:54;6.70;;;6.10;;
75165;SDS011;63747;48.042;10.088;2023-06-26T06:08:54;7.07;;;6.05;;
75165;SDS011;63747;48.042;10.088;2023-06-26T06:11:55;6.78;;;6.18;;
75165;SDS011;63747;48.042;10.088;2023-06-26T06:14:56;7.40;;;6.35;;
75165;SDS011;63747;48.042;10.088;2023-06-26T06:17:57;7.80;;;6.45;;
75165;SDS011;63747;48.042;10.088;2023-06-26T06:20:57;7.00;;;6.30;;
75165;SDS011;63747;48.042;10.088;2023-06-26T06:23:58;7.75;;;6.18;;
75165;SDS011;63747;48.042;10.088;2023-06-26T06:27:01;7.05;;;6.00;;
75165;SDS011;63747;48.042;10.088;2023-06-26T06:30:02;7.47;;;6.63;;
75165;SDS011;63747;48.042;10.088;2023-06-26T06:33:03;6.95;;;5.93;;
75165;SDS011;63747;48.042;10.088;2023-06-26T06:36:04;6.65;;;6.00;;
75165;SDS011;63747;48.042;10.088;2023-06-26T06:39:05;7.30;;;5.82;;
75165;SDS011;63747;48.042;10.088;2023-06-26T06:42:05;7.97;;;5.93;;
75165;SDS011;63747;48.042;10.088;2023-06-26T06:45:06;6.90;;;6.05;;
75165;SDS011;63747;48.042;10.088;2023-06-26T06:48:07;6.70;;;6.00;;
75165;SDS011;63747;48.042;10.088;2023-06-26T06:51:08;6.10;;;5.50;;
75165;SDS011;63747;48.042;10.088;2023-06-26T06:54:09;6.97;;;6.32;;
75165;SDS011;63747;48.042;10.088;2023-06-26T06:57:20;7.28;;;5.70;;
75165;SDS011;63747;48.042;10.088;2023-06-26T07:00:21;6.20;;;5.60;;
75165;SDS011;63747;48.042;10.088;2023-06-26T07:03:22;7.25;;;5.88;;
75165;SDS011;63747;48.042;10.088;2023-06-26T07:06:23;7.80;;;5.65;;
75165;SDS011;63747;48.042;10.088;2023-06-26T07:09:23;7.47;;;6.10;;
75165;SDS011;63747;48.042;10.088;2023-06-26T07:12:24;6.03;;;5.43;;
75165;SDS011;63747;48.042;10.088;2023-06-26T07:15:25;5.80;;;5.22;;
75165;SDS011;63747;48.042;10.088;2023-06-26T07:18:25;7.20;;;5.38;;
75165;SDS011;63747;48.042;10.088;2023-06-26T07:21:26;6.55;;;5.40;;
75165;SDS011;63747;48.042;10.088;2023-06-26T07:24:27;6.30;;;5.68;;
75165;SDS011;63747;48.042;10.088;2023-06-26T07:27:27;6.35;;;5.78;;
75165;SDS011;63747;48.042;10.088;2023-06-26T07:30:28;9.45;;;4.95;;
75165;SDS011;63747;48.042;10.088;2023-06-26T07:33:29;5.50;;;4.95;;
75165;SDS011;63747;48.042;10.088;2023-06-26T07:36:29;5.95;;;5.35;;
75165;SDS011;63747;48.042;10.088;2023-06-26T07:39:30;5.78;;;5.38;;
75165;SDS011;63747;48.042;10.088;2023-06-26T07:42:31;5.80;;;5.30;;
75165;SDS011;63747;48.042;10.088;2023-06-26T07:45:32;6.57;;;5.13;;
75165;SDS011;63747;48.042;10.088;2023-06-26T07:48:32;5.70;;;5.00;;
75165;SDS011;63747;48.042;10.088;2023-06-26T07:51:33;5.43;;;4.93;;
75165;SDS011;63747;48.042;10.088;2023-06-26T07:54:34;5.43;;;4.88;;
75165;SDS011;63747;48.042;10.088;2023-06-26T07:57:34;5.93;;;4.70;;
75165;SDS011;63747;48.042;10.088;2023-06-26T08:00:35;6.15;;;5.55;;
75165;SDS011;63747;48.042;10.088;2023-06-26T08:03:36;5.82;;;5.00;;
75165;SDS011;63747;48.042;10.088;2023-06-26T08:06:36;9.27;;;5.32;;
75165;SDS011;63747;48.042;10.088;2023-06-26T08:09:40;5.82;;;5.28;;
75165;SDS011;63747;48.042;10.088;2023-06-26T08:12:41;10.27;;;4.88;;
75165;SDS011;63747;48.042;10.088;2023-06-26T08:15:44;5.55;;;4.97;;
75165;SDS011;63747;48.042;10.088;2023-06-26T08:18:45;5.50;;;4.70;;
75165;SDS011;63747;48.042;10.088;2023-06-26T08:21:47;6.38;;;4.90;;
75165;SDS011;63747;48.042;10.088;2023-06-26T08:24:48;5.25;;;4.78;;
75165;SDS011;63747;48.042;10.088;2023-06-26T08:27:48;5.20;;;4.80;;
75165;SDS011;63747;48.042;10.088;2023-06-26T08:30:52;5.35;;;4.85;;
75165;SDS011;63747;48.042;10.088;2023-06-26T08:33:53;5.40;;;4.90;;
75165;SDS011;63747;48.042;10.088;2023-06-26T08:36:54;7.43;;;5.03;;
75165;SDS011;63747;48.042;10.088;2023-06-26T08:39:54;6.00;;;4.63;;
75165;SDS011;63747;48.042;10.088;2023-06-26T08:42:55;5.32;;;4.82;;
75165;SDS011;63747;48.042;10.088;2023-06-26T08:45:56;4.78;;;4.38;;
75165;SDS011;63747;48.042;10.088;2023-06-26T08:48:57;5.82;;;5.20;;
75165;SDS011;63747;48.042;10.088;2023-06-26T08:52:19;5.15;;;4.70;;
75165;SDS011;63747;48.042;10.088;2023-06-26T08:55:23;5.60;;;4.97;;
75165;SDS011;63747;48.042;10.088;2023-06-26T08:58:26;6.85;;;4.88;;
75165;SDS011;63747;48.042;10.088;2023-06-26T09:01:27;5.20;;;4.72;;
75165;SDS011;63747;48.042;10.088;2023-06-26T09:04:28;5.28;;;4.57;;
75165;SDS011;63747;48.042;10.088;2023-06-26T09:07:29;5.25;;;4.85;;
75165;SDS011;63747;48.042;10.088;2023-06-26T09:10:30;6.43;;;4.95;;
75165;SDS011;63747;48.042;10.088;2023-06-26T09:13:37;4.97;;;4.47;;
75165;SDS011;63747;48.042;10.088;2023-06-26T09:16:40;5.25;;;4.40;;
75165;SDS011;63747;48.042;10.088;2023-06-26T09:19:44;6.55;;;4.78;;
75165;SDS011;63747;48.042;10.088;2023-06-26T09:22:47;5.50;;;4.97;;
75165;SDS011;63747;48.042;10.088;2023-06-26T09:25:48;7.25;;;5.18;;
75165;SDS011;63747;48.042;10.088;2023-06-26T09:28:51;5.65;;;5.07;;
75165;SDS011;63747;48.042;10.088;2023-06-26T09:31:52;4.80;;;4.32;;
75165;SDS011;63747;48.042;10.088;2023-06-26T09:34:53;6.22;;;5.18;;
75165;SDS011;63747;48.042;10.088;2023-06-26T09:37:57;5.22;;;4.65;;
75165;SDS011;63747;48.042;10.088;2023-06-26T09:40:58;6.35;;;4.97;;
75165;SDS011;63747;48.042;10.088;2023-06-26T09:44:00;6.72;;;4.85;;
75165;SDS011;63747;48.042;10.088;2023-06-26T09:47:02;6.43;;;4.78;;
75165;SDS011;63747;48.042;10.088;2023-06-26T09:50:04;5.82;;;5.32;;
75165;SDS011;63747;48.042;10.088;2023-06-26T09:53:08;4.50;;;4.03;;
75165;SDS011;63747;48.042;10.088;2023-06-26T09:56:18;4.78;;;4.30;;
75165;SDS011;63747;48.042;10.088;2023-06-26T09:59:18;5.82;;;5.20;;
75165;SDS011;63747;48.042;10.088;2023-06-26T10:02:19;5.78;;;5.22;;
75165;SDS011;63747;48.042;10.088;2023-06-26T10:05:20;5.95;;;5.45;;
75165;SDS011;63747;48.042;10.088;2023-06-26T10:08:21;6.43;;;5.30;;
75165;SDS011;63747;48.042;10.088;2023-06-26T10:11:21;5.45;;;5.05;;
75165;SDS011;63747;48.042;10.088;2023-06-26T10:14:26;5.28;;;4.88;;
75165;SDS011;63747;48.042;10.088;2023-06-26T10:17:28;5.47;;;4.93;;
75165;SDS011;63747;48.042;10.088;2023-06-26T10:20:32;5.70;;;5.20;;
75165;SDS011;63747;48.042;10.088;2023-06-26T10:23:34;5.68;;;5.05;;
75165;SDS011;63747;48.042;10.088;2023-06-26T10:26:38;6.65;;;5.22;;
75165;SDS011;63747;48.042;10.088;2023-06-26T10:29:44;8.18;;;5.60;;
75165;SDS011;63747;48.042;10.088;2023-06-26T10:32:51;6.25;;;5.75;;
75165;SDS011;63747;48.042;10.088;2023-06-26T10:35:52;6.53;;;5.13;;
75165;SDS011;63747;48.042;10.088;2023-06-26T10:38:56;5.60;;;5.15;;
75165;SDS011;63747;48.042;10.088;2023-06-26T10:42:08;6.38;;;5.00;;
75165;SDS011;63747;48.042;10.088;2023-06-26T10:45:16;5.90;;;5.38;;
75165;SDS011;63747;48.042;10.088;2023-06-26T10:48:18;6.43;;;5.28;;
75165;SDS011;63747;48.042;10.088;2023-06-26T10:51:18;6.13;;;5.00;;
75165;SDS011;63747;48.042;10.088;2023-06-26T10:54:20;7.75;;;5.53;;
75165;SDS011;63747;48.042;10.088;2023-06-26T10:57:24;5.45;;;4.95;;
75165;SDS011;63747;48.042;10.088;2023-06-26T11:00:25;5.32;;;4.93;;
75165;SDS011;63747;48.042;10.088;2023-06-26T11:03:29;5.95;;;5.10;;
75165;SDS011;63747;48.042;10.088;2023-06-26T11:06:31;7.30;;;4.93;;
75165;SDS011;63747;48.042;10.088;2023-06-26T11:09:32;5.63;;;4.95;;
75165;SDS011;63747;48.042;10.088;2023-06-26T11:12:54;5.90;;;5.40;;
75165;SDS011;63747;48.042;10.088;2023-06-26T11:15:58;5.22;;;4.82;;
75165;SDS011;63747;48.042;10.088;2023-06-26T11:18:59;5.40;;;4.90;;
75165;SDS011;63747;48.042;10.088;2023-06-26T11:22:03;5.15;;;4.75;;
75165;SDS011;63747;48.042;10.088;2023-06-26T11:25:05;5.57;;;5.05;;
75165;SDS011;63747;48.042;10.088;2023-06-26T11:28:09;7.20;;;5.10;;
75165;SDS011;63747;48.042;10.088;2023-06-26T11:31:23;5.68;;;5.18;;
75165;SDS011;63747;48.042;10.088;2023-06-26T11:34:29;6.15;;;5.32;;
75165;SDS011;63747;48.042;10.088;2023-06-26T11:37:33;5.32;;;4.90;;
75165;SDS011;63747;48.042;10.088;2023-06-26T11:40:35;5.70;;;4.65;;
75165;SDS011;63747;48.042;10.088;2023-06-26T11:43:37;4.97;;;4.57;;
75165;SDS011;63747;48.042;10.088;2023-06-26T11:46:38;4.93;;;4.53;;
75165;SDS011;63747;48.042;10.088;2023-06-26T11:49:41;6.82;;;5.05;;
75165;SDS011;63747;48.042;10.088;2023-06-26T11:52:43;5.75;;;5.20;;
75165;SDS011;63747;48.042;10.088;2023-06-26T11:55:45;5.55;;;5.05;;
75165;SDS011;63747;48.042;10.088;2023-06-26T11:58:59;6.43;;;5.82;;
75165;SDS011;63747;48.042;10.088;2023-06-26T12:02:06;5.25;;;4.75;;
75165;SDS011;63747;48.042;10.088;2023-06-26T12:05:08;5.15;;;4.75;;
75165;SDS011;63747;48.042;10.088;2023-06-26T12:08:10;8.77;;;5.38;;
75165;SDS011;63747;48.042;10.088;2023-06-26T12:11:12;5.55;;;5.05;;
75165;SDS011;63747;48.042;10.088;2023-06-26T12:14:13;4.97;;;4.50;;
75165;SDS011;63747;48.042;10.088;2023-06-26T12:17:14;5.55;;;5.05;;
75165;SDS011;63747;48.042;10.088;2023-06-26T12:20:18;5.22;;;4.72;;
75165;SDS011;63747;48.042;10.088;2023-06-26T12:23:23;5.28;;;4.88;;
75165;SDS011;63747;48.042;10.088;2023-06-26T12:26:23;5.60;;;5.10;;
75165;SDS011;63747;48.042;10.088;2023-06-26T12:29:31;5.57;;;4.82;;
75165;SDS011;63747;48.042;10.088;2023-06-26T12:32:34;7.18;;;4.80;;
75165;SDS011;63747;48.042;10.088;2023-06-26T12:35:35;8.82;;;4.97;;
75165;SDS011;63747;48.042;10.088;2023-06-26T12:38:37;6.88;;;5.10;;
75165;SDS011;63747;48.042;10.088;2023-06-26T12:41:46;7.10;;;5.05;;
75165;SDS011;63747;48.042;10.088;2023-06-26T12:44:48;5.97;;;5.47;;
75165;SDS011;63747;48.042;10.088;2023-06-26T12:47:49;5.57;;;5.07;;
75165;SDS011;63747;48.042;10.088;2023-06-26T12:50:49;7.38;;;4.80;;
75165;SDS011;63747;48.042;10.088;2023-06-26T12:53:50;4.97;;;4.57;;
75165;SDS011;63747;48.042;10.088;2023-06-26T12:56:51;5.28;;;4.88;;
75165;SDS011;63747;48.042;10.088;2023-06-26T12:59:53;5.55;;;5.05;;
75165;SDS011;63747;48.042;10.088;2023-06-26T13:02:53;5.40;;;4.90;;
75165;SDS011;63747;48.042;10.088;2023-06-26T13:05:54;7.22;;;4.95;;
75165;SDS011;63747;48.042;10.088;2023-06-26T13:08:55;5.47;;;4.95;;
75165;SDS011;63747;48.042;10.088;2023-06-26T13:11:55;5.35;;;4.90;;
75165;SDS011;63747;48.042;10.088;2023-06-26T13:14:56;5.47;;;4.97;;
75165;SDS011;63747;48.042;10.088;2023-06-26T13:17:56;6.22;;;5.25;;
75165;SDS011;63747;48.042;10.088;2023-06-26T13:20:57;6.50;;;5.22;;
75165;SDS011;63747;48.042;10.088;2023-06-26T13:23:58;6.47;;;5.50;;
75165;SDS011;63747;48.042;10.088;2023-06-26T13:26:59;6.40;;;5.90;;
75165;SDS011;63747;48.042;10.088;2023-06-26T13:29:59;9.35;;;6.38;;
75165;SDS011;63747;48.042;10.088;2023-06-26T13:33:02;8.30;;;6.65;;
75165;SDS011;63747;48.042;10.088;2023-06-26T13:36:03;10.82;;;6.85;;
75165;SDS011;63747;48.042;10.088;2023-06-26T13:39:05;10.57;;;6.65;;
75165;SDS011;63747;48.042;10.088;2023-06-26T13:42:05;9.30;;;6.55;;
75165;SDS011;63747;48.042;10.088;2023-06-26T13:45:07;9.00;;;6.10;;
75165;SDS011;63747;48.042;10.088;2023-06-26T13:48:08;8.60;;;5.68;;
75165;SDS011;63747;48.042;10.088;2023-06-26T13:51:08;7.22;;;5.85;;
75165;SDS011;63747;48.042;10.088;2023-06-26T13:54:09;5.82;;;5.18;;
75165;SDS011;63747;48.042;10.088;2023-06-26T13:57:10;7.05;;;5.65;;
75165;SDS011;63747;48.042;10.088;2023-06-26T14:00:11;8.48;;;5.55;;
75165;SDS011;63747;48.042;10.088;2023-06-26T14:03:12;5.75;;;4.97;;
75165;SDS011;63747;48.042;10.088;2023-06-26T14:06:13;7.38;;;5.03;;
75165;SDS011;63747;48.042;10.088;2023-06-26T14:09:14;4.88;;;4.43;;
75165;SDS011;63747;48.042;10.088;2023-06-26T14:12:15;4.95;;;4.43;;
75165;SDS011;63747;48.042;10.088;2023-06-26T14:15:16;4.97;;;4.50;;
75165;SDS011;63747;48.042;10.088;2023-06-26T14:18:17;7.57;;;5.40;;
75165;SDS011;63747;48.042;10.088;2023-06-26T14:21:18;5.30;;;4.80;;
75165;SDS011;63747;48.042;10.088;2023-06-26T14:24:19;5.53;;;4.80;;
75165;SDS011;63747;48.042;10.088;2023-06-26T14:27:20;6.15;;;4.60;;
75165;SDS011;63747;48.042;10.088;2023-06-26T14:30:21;5.65;;;5.15;;
75165;SDS011;63747;48.042;10.088;2023-06-26T14:33:21;5.13;;;4.72;;
75165;SDS011;63747;48.042;10.088;2023-06-26T14:36:22;5.70;;;5.20;;
75165;SDS011;63747;48.042;10.088;2023-06-26T14:39:23;5.90;;;5.40;;
75165;SDS011;63747;48.042;10.088;2023-06-26T14:42:23;5.95;;;5.45;;
75165;SDS011;63747;48.042;10.088;2023-06-26T14:45:24;5.88;;;5.32;;
75165;SDS011;63747;48.042;10.088;2023-06-26T14:48:25;6.32;;;5.43;;
75165;SDS011;63747;48.042;10.088;2023-06-26T14:51:26;9.05;;;5.90;;
75165;SDS011;63747;48.042;10.088;2023-06-26T14:54:26;6.90;;;6.30;;
75165;SDS011;63747;48.042;10.088;2023-06-26T14:57:27;6.25;;;5.75;;
75165;SDS011;63747;48.042;10.088;2023-06-26T15:00:27;6.07;;;5.57;;
75165;SDS011;63747;48.042;10.088;2023-06-26T15:03:28;6.18;;;5.57;;
75165;SDS011;63747;48.042;10.088;2023-06-26T15:06:29;6.10;;;5.60;;
75165;SDS011;63747;48.042;10.088;2023-06-26T15:09:29;6.32;;;5.72;;
75165;SDS011;63747;48.042;10.088;2023-06-26T15:12:32;7.75;;;6.07;;
75165;SDS011;63747;48.042;10.088;2023-06-26T15:15:32;6.53;;;5.82;;
75165;SDS011;63747;48.042;10.088;2023-06-26T15:18:33;5.57;;;5.18;;
75165;SDS011;63747;48.042;10.088;2023-06-26T15:21:34;5.97;;;5.47;;
75165;SDS011;63747;48.042;10.088;2023-06-26T15:24:35;9.45;;;6.25;;
75165;SDS011;63747;48.042;10.088;2023-06-26T15:27:36;6.20;;;5.65;;
75165;SDS011;63747;48.042;10.088;2023-06-26T15:30:36;6.88;;;6.10;;
75165;SDS011;63747;48.042;10.088;2023-06-26T15:33:37;7.22;;;6.40;;
75165;SDS011;63747;48.042;10.088;2023-06-26T15:36:38;6.75;;;6.00;;
75165;SDS011;63747;48.042;10.088;2023-06-26T15:39:38;6.57;;;5.97;;
75165;SDS011;63747;48.042;10.088;2023-06-26T15:42:46;6.75;;;6.03;;
75165;SDS011;63747;48.042;10.088;2023-06-26T15:45:47;6.45;;;5.90;;
75165;SDS011;63747;48.042;10.088;2023-06-26T15:48:48;7.30;;;5.72;;
75165;SDS011;63747;48.042;10.088;2023-06-26T15:51:48;6.88;;;6.20;;
75165;SDS011;63747;48.042;10.088;2023-06-26T15:54:49;7.88;;;6.05;;
75165;SDS011;63747;48.042;10.088;2023-06-26T15:57:50;6.60;;;5.72;;
75165;SDS011;63747;48.042;10.088;2023-06-26T16:00:50;7.57;;;5.90;;
75165;SDS011;63747;48.042;10.088;2023-06-26T16:03:51;6.38;;;5.82;;
75165;SDS011;63747;48.042;10.088;2023-06-26T16:06:52;7.13;;;6.03;;
75165;SDS011;63747;48.042;10.088;2023-06-26T16:09:52;6.43;;;5.85;;
75165;SDS011;63747;48.042;10.088;2023-06-26T16:12:53;6.82;;;6.13;;
75165;SDS011;63747;48.042;10.088;2023-06-26T16:15:54;6.75;;;6.15;;
75165;SDS011;63747;48.042;10.088;2023-06-26T16:18:54;6.18;;;5.65;;
75165;SDS011;63747;48.042;10.088;2023-06-26T16:21:55;8.10;;;5.63;;
75165;SDS011;63747;48.042;10.088;2023-06-26T16:24:56;7.00;;;6.10;;
75165;SDS011;63747;48.042;10.088;2023-06-26T16:27:56;6.75;;;6.15;;
75165;SDS011;63747;48.042;10.088;2023-06-26T16:30:57;6.88;;;6.28;;
75165;SDS011;63747;48.042;10.088;2023-06-26T16:33:58;6.55;;;6.03;;
75165;SDS011;63747;48.042;10.088;2023-06-26T16:37:00;6.57;;;6.00;;
75165;SDS011;63747;48.042;10.088;2023-06-26T16:40:07;6.95;;;6.35;;
75165;SDS011;63747;48.042;10.088;2023-06-26T16:43:08;8.23;;;6.90;;
75165;SDS011;63747;48.042;10.088;2023-06-26T16:46:08;7.45;;;6.78;;
75165;SDS011;63747;48.042;10.088;2023-06-26T16:49:09;8.65;;;6.97;;
75165;SDS011;63747;48.042;10.088;2023-06-26T16:52:10;16.85;;;9.55;;
75165;SDS011;63747;48.042;10.088;2023-06-26T16:55:11;14.25;;;8.75;;
75165;SDS011;63747;48.042;10.088;2023-06-26T16:58:12;12.63;;;8.45;;
75165;SDS011;63747;48.042;10.088;2023-06-26T17:01:12;16.02;;;10.48;;
75165;SDS011;63747;48.042;10.088;2023-06-26T17:04:13;12.88;;;9.40;;
75165;SDS011;63747;48.042;10.088;2023-06-26T17:07:14;9.30;;;8.18;;
75165;SDS011;63747;48.042;10.088;2023-06-26T17:10:14;13.57;;;8.10;;
75165;SDS011;63747;48.042;10.088;2023-06-26T17:13:15;12.57;;;8.43;;
75165;SDS011;63747;48.042;10.088;2023-06-26T17:16:15;10.07;;;8.00;;
75165;SDS011;63747;48.042;10.088;2023-06-26T17:19:16;8.95;;;7.80;;
75165;SDS011;63747;48.042;10.088;2023-06-26T17:22:17;10.57;;;8.27;;
75165;SDS011;63747;48.042;10.088;2023-06-26T17:25:17;8.75;;;7.47;;
75165;SDS011;63747;48.042;10.088;2023-06-26T17:28:18;9.05;;;7.78;;
75165;SDS011;63747;48.042;10.088;2023-06-26T17:31:19;9.32;;;7.90;;
75165;SDS011;63747;48.042;10.088;2023-06-26T17:34:19;8.27;;;7.40;;
75165;SDS011;63747;48.042;10.088;2023-06-26T17:37:20;12.05;;;8.35;;
75165;SDS011;63747;48.042;10.088;2023-06-26T17:40:24;9.63;;;7.60;;
75165;SDS011;63747;48.042;10.088;2023-06-26T17:43:25;10.40;;;7.70;;
75165;SDS011;63747;48.042;10.088;2023-06-26T17:46:25;10.23;;;7.63;;
75165;SDS011;63747;48.042;10.088;2023-06-26T17:49:26;9.15;;;8.13;;
75165;SDS011;63747;48.042;10.088;2023-06-26T17:52:27;9.70;;;8.20;;
75165;SDS011;63747;48.042;10.088;2023-06-26T17:55:28;10.57;;;8.25;;
75165;SDS011;63747;48.042;10.088;2023-06-26T17:58:28;9.82;;;8.48;;
75165;SDS011;63747;48.042;10.088;2023-06-26T18:01:29;9.70;;;8.52;;
75165;SDS011;63747;48.042;10.088;2023-06-26T18:04:30;9.95;;;8.10;;
75165;SDS011;63747;48.042;10.088;2023-06-26T18:07:31;9.02;;;8.07;;
75165;SDS011;63747;48.042;10.088;2023-06-26T18:10:31;9.02;;;7.78;;
75165;SDS011;63747;48.042;10.088;2023-06-26T18:13:38;8.70;;;6.88;;